createdAt,value
2019-01-28T00:02:04.681Z,96.90
2019-01-28T00:04:36.577Z,96.60
2019-01-28T00:07:08.564Z,96.70
2019-01-28T00:09:40.566Z,96.50
2019-01-28T00:12:13.982Z,96.40
2019-01-28T00:14:45.962Z,96.40
2019-01-28T00:17:17.830Z,96.30
2019-01-28T00:19:49.737Z,96.20
2019-01-28T00:22:21.597Z,96.00
2019-01-28T00:24:53.496Z,95.80
2019-01-28T00:27:25.360Z,96.00
2019-01-28T00:29:57.259Z,95.80
2019-01-28T00:32:29.122Z,95.50
2019-01-28T00:35:01.020Z,95.10
2019-01-28T00:37:32.921Z,95.50
2019-01-28T00:40:05.951Z,95.60
2019-01-28T00:42:37.945Z,95.70
2019-01-28T00:45:11.942Z,95.70
2019-01-28T00:47:43.831Z,95.90
2019-01-28T00:50:15.951Z,96.10
2019-01-28T00:52:47.864Z,96.20
2019-01-28T00:55:19.774Z,96.40
2019-01-28T00:57:51.671Z,96.20
2019-01-28T01:00:24.827Z,96.30
2019-01-28T01:02:56.733Z,96.40
2019-01-28T01:05:28.729Z,96.70
2019-01-28T01:08:00.638Z,97.10
2019-01-28T01:10:32.572Z,97.10
2019-01-28T01:13:04.748Z,97.20
2019-01-28T01:15:36.679Z,96.80
2019-01-28T01:18:08.581Z,96.60
2019-01-28T01:20:40.586Z,96.90
2019-01-28T01:23:12.585Z,96.90
2019-01-28T01:25:44.492Z,97.00
2019-01-28T01:28:16.392Z,96.90
2019-01-28T01:30:48.340Z,97.10
2019-01-28T01:33:20.264Z,96.90
2019-01-28T01:35:52.283Z,96.90
2019-01-28T01:38:24.176Z,96.70
2019-01-28T01:40:56.081Z,96.90
2019-01-28T01:43:27.977Z,96.90
2019-01-28T01:45:59.888Z,96.80
2019-01-28T01:48:31.778Z,96.80
2019-01-28T01:51:03.693Z,96.70
2019-01-28T01:53:35.589Z,96.60
2019-01-28T01:56:07.514Z,96.50
2019-01-28T01:58:39.404Z,96.40
2019-01-28T02:01:11.318Z,96.40
2019-01-28T02:03:43.214Z,97.00
2019-01-28T02:06:15.122Z,96.40
2019-01-28T02:08:47.027Z,96.60
2019-01-28T02:11:18.972Z,96.20
2019-01-28T02:13:50.871Z,96.00
2019-01-28T02:16:22.776Z,95.80
2019-01-28T02:18:54.677Z,95.90
2019-01-28T02:21:26.682Z,95.90
2019-01-28T02:23:58.689Z,95.80
2019-01-28T02:26:30.603Z,95.30
2019-01-28T02:29:02.498Z,95.50
2019-01-28T02:31:34.399Z,95.60
2019-01-28T02:34:06.401Z,95.10
2019-01-28T02:36:38.317Z,95.00
2019-01-28T02:39:10.417Z,95.30
2019-01-28T02:41:42.327Z,95.20
2019-01-28T02:44:14.225Z,95.00
2019-01-28T02:46:46.136Z,94.90
2019-01-28T02:49:18.041Z,94.90
2019-01-28T02:51:49.939Z,95.10
2019-01-28T02:54:21.840Z,94.50
2019-01-28T02:56:53.749Z,94.50
2019-01-28T02:59:25.642Z,94.50
2019-01-28T03:01:59.159Z,94.60
2019-01-28T03:04:31.125Z,94.50
2019-01-28T03:07:03.063Z,93.90
2019-01-28T03:09:34.953Z,94.20
2019-01-28T03:12:07.265Z,94.30
2019-01-28T03:14:39.154Z,94.10
2019-01-28T03:17:11.055Z,94.20
2019-01-28T03:19:42.950Z,94.20
2019-01-28T03:22:14.863Z,94.10
2019-01-28T03:24:46.767Z,93.90
2019-01-28T03:27:18.680Z,94.10
2019-01-28T03:29:50.581Z,93.90
2019-01-28T03:32:22.482Z,94.00
2019-01-28T03:34:54.378Z,94.00
2019-01-28T03:37:26.283Z,93.60
2019-01-28T03:39:58.181Z,93.20
2019-01-28T03:42:30.088Z,93.60
2019-01-28T03:45:01.985Z,93.20
2019-01-28T03:47:33.880Z,93.20
2019-01-28T03:50:06.572Z,93.00
2019-01-28T03:52:38.487Z,92.90
2019-01-28T03:55:11.376Z,93.00
2019-01-28T03:57:43.794Z,92.40
2019-01-28T04:00:22.471Z,92.20
2019-01-28T04:02:54.575Z,91.90
2019-01-28T04:05:26.880Z,91.60
2019-01-28T04:07:58.770Z,91.80
2019-01-28T04:10:30.675Z,91.10
2019-01-28T04:13:02.689Z,91.10
2019-01-28T04:15:34.679Z,91.10
2019-01-28T04:18:06.793Z,91.20
2019-01-28T04:20:38.689Z,91.40
2019-01-28T04:23:10.594Z,90.80
2019-01-28T04:25:42.538Z,91.20
2019-01-28T04:28:14.442Z,91.20
2019-01-28T04:30:46.343Z,90.70
2019-01-28T04:33:18.251Z,89.70
2019-01-28T04:35:50.150Z,90.40
2019-01-28T04:38:22.059Z,90.00
2019-01-28T04:40:53.954Z,90.80
2019-01-28T04:43:25.867Z,89.70
2019-01-28T04:45:57.898Z,89.60
2019-01-28T04:48:29.796Z,89.00
2019-01-28T04:51:01.689Z,88.50
2019-01-28T04:53:33.594Z,89.00
2019-01-28T04:56:05.598Z,89.60
2019-01-28T04:58:37.514Z,89.10
2019-01-28T05:01:09.409Z,89.30
2019-01-28T05:03:41.414Z,88.40
2019-01-28T05:06:13.430Z,88.60
2019-01-28T05:08:45.372Z,88.50
2019-01-28T05:11:17.286Z,88.50
2019-01-28T05:13:49.194Z,88.50
2019-01-28T05:16:21.091Z,88.50
2019-01-28T05:18:52.985Z,87.70
2019-01-28T05:21:24.890Z,87.50
2019-01-28T05:23:56.797Z,86.00
2019-01-28T05:26:28.701Z,86.70
2019-01-28T05:29:00.599Z,87.20
2019-01-28T05:31:32.500Z,87.10
2019-01-28T05:34:04.604Z,87.40
2019-01-28T05:36:36.501Z,86.90
2019-01-28T05:39:11.140Z,87.10
2019-01-28T05:41:43.031Z,86.90
2019-01-28T05:44:14.935Z,87.30
2019-01-28T05:46:46.832Z,87.40
2019-01-28T05:49:18.745Z,86.90
2019-01-28T05:51:50.640Z,87.20
2019-01-28T05:54:22.550Z,87.70
2019-01-28T05:56:54.444Z,87.50
2019-01-28T05:59:26.351Z,86.90
2019-01-28T06:01:58.246Z,87.70
2019-01-28T06:04:30.157Z,87.90
2019-01-28T06:07:02.126Z,87.70
2019-01-28T06:09:34.070Z,88.20
2019-01-28T06:12:05.966Z,88.30
2019-01-28T06:14:37.872Z,88.50
2019-01-28T06:17:09.866Z,88.30
2019-01-28T06:19:41.767Z,88.10
2019-01-28T06:22:13.670Z,87.30
2019-01-28T06:24:45.580Z,87.20
2019-01-28T06:27:17.483Z,87.30
2019-01-28T06:29:49.391Z,88.00
2019-01-28T06:32:21.299Z,86.70
2019-01-28T06:34:53.210Z,86.40
2019-01-28T06:37:25.111Z,86.80
2019-01-28T06:39:57.018Z,86.80
2019-01-28T06:42:28.924Z,86.90
2019-01-28T06:45:02.213Z,87.90
2019-01-28T06:47:34.209Z,88.00
2019-01-28T06:50:07.282Z,88.50
2019-01-28T06:52:39.177Z,89.00
2019-01-28T06:55:11.765Z,90.00
2019-01-28T06:57:43.668Z,90.10
2019-01-28T07:00:43.729Z,90.50
2019-01-28T07:03:15.698Z,90.20
2019-01-28T07:05:47.713Z,90.20
2019-01-28T07:08:19.734Z,90.20
2019-01-28T07:10:51.750Z,90.30
2019-01-28T07:13:23.687Z,90.20
2019-01-28T07:15:55.587Z,90.10
2019-01-28T07:18:27.483Z,90.40
2019-01-28T07:20:59.396Z,90.20
2019-01-28T07:23:31.307Z,90.30
2019-01-28T07:26:03.210Z,90.50
2019-01-28T07:28:35.114Z,90.20
2019-01-28T07:31:07.091Z,90.20
2019-01-28T07:33:39.002Z,90.30
2019-01-28T07:36:10.912Z,90.10
2019-01-28T07:38:42.805Z,90.30
2019-01-28T07:41:14.712Z,90.10
2019-01-28T07:43:46.615Z,90.00
2019-01-28T07:46:18.520Z,90.10
2019-01-28T07:48:50.416Z,90.20
2019-01-28T07:51:22.318Z,90.30
2019-01-28T07:53:54.219Z,90.00
2019-01-28T07:56:26.128Z,90.20
2019-01-28T07:58:58.030Z,90.30
2019-01-28T08:01:29.930Z,90.20
2019-01-28T08:04:01.839Z,90.10
2019-01-28T08:06:33.852Z,90.10
2019-01-28T08:09:08.779Z,90.30
2019-01-28T08:11:40.729Z,89.60
2019-01-28T08:14:12.732Z,89.60
2019-01-28T08:16:44.635Z,89.90
2019-01-28T08:19:16.543Z,89.40
2019-01-28T08:21:48.453Z,89.00
2019-01-28T08:24:20.355Z,88.90
2019-01-28T08:26:52.357Z,88.90
2019-01-28T08:29:24.283Z,88.20
2019-01-28T08:31:56.185Z,88.00
2019-01-28T08:34:28.094Z,88.30
2019-01-28T08:37:00.003Z,88.70
2019-01-28T08:39:31.980Z,87.90
2019-01-28T08:42:03.886Z,87.70
2019-01-28T08:44:35.786Z,87.60
2019-01-28T08:47:07.895Z,87.80
2019-01-28T08:49:39.799Z,87.80
2019-01-28T08:52:11.711Z,87.90
2019-01-28T08:54:43.613Z,88.00
2019-01-28T08:57:15.518Z,88.00
2019-01-28T08:59:47.382Z,87.90
2019-01-28T09:02:19.290Z,87.90
2019-01-28T09:04:51.192Z,87.40
2019-01-28T09:07:23.249Z,87.20
2019-01-28T09:09:55.142Z,87.90
2019-01-28T09:12:27.055Z,88.70
2019-01-28T09:14:58.952Z,88.50
2019-01-28T09:17:30.863Z,88.20
2019-01-28T09:20:02.866Z,88.10
2019-01-28T09:22:34.771Z,87.20
2019-01-28T09:25:09.802Z,87.50
2019-01-28T09:27:41.865Z,87.40
2019-01-28T09:30:27.407Z,86.60
2019-01-28T09:32:59.423Z,86.40
2019-01-28T09:35:31.485Z,85.80
2019-01-28T09:38:03.721Z,86.60
2019-01-28T09:40:36.810Z,86.70
2019-01-28T09:43:09.262Z,87.00
2019-01-28T09:45:43.544Z,85.50
2019-01-28T09:48:16.994Z,85.90
2019-01-28T09:50:48.998Z,86.00
2019-01-28T09:53:20.902Z,85.40
2019-01-28T09:55:52.915Z,85.70
2019-01-28T09:58:24.815Z,85.50
2019-01-28T10:00:56.713Z,84.60
2019-01-28T10:03:28.625Z,85.40
2019-01-28T10:06:00.517Z,85.00
2019-01-28T10:08:32.538Z,85.00
2019-01-28T10:11:04.652Z,84.70
2019-01-28T10:13:36.594Z,84.80
2019-01-28T10:16:08.495Z,83.90
2019-01-28T10:18:41.920Z,84.10
2019-01-28T10:21:14.282Z,83.90
2019-01-28T10:23:46.286Z,83.50
2019-01-28T10:26:18.202Z,83.20
2019-01-28T10:28:50.104Z,82.40
2019-01-28T10:31:22.545Z,82.80
2019-01-28T10:33:54.456Z,83.30
2019-01-28T10:36:26.569Z,83.20
2019-01-28T10:38:58.522Z,83.60
2019-01-28T10:41:30.429Z,83.20
2019-01-28T10:44:09.919Z,83.80
2019-01-28T10:46:35.937Z,83.60
2019-01-28T10:49:07.939Z,83.80
2019-01-28T10:51:39.841Z,83.40
2019-01-28T10:54:11.747Z,83.60
2019-01-28T10:56:43.648Z,83.50
2019-01-28T10:59:15.559Z,84.10
2019-01-28T11:01:47.454Z,84.60
2019-01-28T11:04:19.358Z,85.10
2019-01-28T11:06:51.258Z,86.80
2019-01-28T11:09:23.325Z,87.80
2019-01-28T11:11:55.259Z,88.40
2019-01-28T11:14:27.302Z,89.20
2019-01-28T11:16:59.255Z,88.60
2019-01-28T11:19:32.260Z,89.10
2019-01-28T11:22:04.472Z,88.70
2019-01-28T11:24:36.441Z,88.20
2019-01-28T11:27:08.918Z,88.50
2019-01-28T11:29:40.936Z,88.70
2019-01-28T11:32:13.033Z,88.50
2019-01-28T11:34:45.059Z,88.90
2019-01-28T11:37:17.092Z,89.40
2019-01-28T11:39:49.067Z,89.10
2019-01-28T11:42:21.032Z,88.40
2019-01-28T11:44:52.994Z,85.50
2019-01-28T11:47:24.984Z,86.90
2019-01-28T11:49:57.024Z,86.70
2019-01-28T11:52:28.891Z,87.10
2019-01-28T11:55:00.789Z,84.90
2019-01-28T11:57:32.800Z,85.40
2019-01-28T12:00:06.516Z,85.60
2019-01-28T12:02:38.421Z,85.30
2019-01-28T12:05:11.205Z,84.30
2019-01-28T12:07:43.240Z,84.30
2019-01-28T12:10:15.321Z,83.50
2019-01-28T12:12:47.271Z,83.80
2019-01-28T12:15:19.794Z,84.60
2019-01-28T12:17:51.796Z,83.50
2019-01-28T12:20:24.018Z,83.50
2019-01-28T12:22:55.890Z,83.50
2019-01-28T12:25:27.799Z,83.90
2019-01-28T12:28:00.001Z,83.00
2019-01-28T12:30:33.138Z,82.90
2019-01-28T12:33:05.153Z,83.00
2019-01-28T12:35:37.058Z,83.00
2019-01-28T12:38:08.958Z,83.10
2019-01-28T12:40:41.077Z,83.30
2019-01-28T12:43:13.006Z,82.90
2019-01-28T12:45:44.911Z,83.30
2019-01-28T12:48:16.812Z,83.50
2019-01-28T12:50:49.778Z,83.20
2019-01-28T12:53:21.672Z,83.70
2019-01-28T12:55:53.671Z,84.10
2019-01-28T12:58:25.566Z,84.00
2019-01-28T13:01:03.343Z,83.80
2019-01-28T13:03:35.411Z,84.10
2019-01-28T13:06:07.621Z,85.00
2019-01-28T13:08:39.534Z,84.90
2019-01-28T13:11:11.554Z,85.50
2019-01-28T13:13:43.421Z,87.80
2019-01-28T13:16:15.422Z,88.20
2019-01-28T13:18:47.323Z,89.30
2019-01-28T13:21:19.337Z,90.00
2019-01-28T13:23:51.243Z,90.70
2019-01-28T13:26:23.141Z,90.90
2019-01-28T13:28:55.036Z,91.10
2019-01-28T13:31:27.037Z,91.40
2019-01-28T13:33:59.038Z,91.60
2019-01-28T13:36:30.947Z,92.00
2019-01-28T13:39:02.838Z,92.40
2019-01-28T13:41:34.741Z,92.00
2019-01-28T13:44:07.057Z,92.10
2019-01-28T13:46:38.953Z,92.50
2019-01-28T13:49:10.854Z,92.40
2019-01-28T13:51:42.959Z,92.60
2019-01-28T13:54:14.962Z,92.90
2019-01-28T13:56:46.871Z,93.10
2019-01-28T13:59:18.771Z,93.10
2019-01-28T14:01:50.678Z,93.10
2019-01-28T14:04:22.537Z,93.30
2019-01-28T14:06:54.439Z,93.40
2019-01-28T14:09:26.420Z,93.70
2019-01-28T14:11:58.466Z,93.80
2019-01-28T14:14:30.377Z,93.90
2019-01-28T14:17:02.277Z,94.00
2019-01-28T14:19:34.173Z,94.40
2019-01-28T14:22:06.182Z,94.50
2019-01-28T14:24:38.086Z,94.70
2019-01-28T14:27:10.001Z,94.90
2019-01-28T14:29:41.891Z,95.30
2019-01-28T14:32:13.791Z,95.80
2019-01-28T14:34:45.690Z,95.70
2019-01-28T14:37:17.592Z,96.00
2019-01-28T14:39:49.571Z,95.90
2019-01-28T14:42:21.558Z,96.00
2019-01-28T14:44:53.458Z,96.40
2019-01-28T14:47:25.363Z,96.40
2019-01-28T14:49:57.330Z,96.40
2019-01-28T14:52:29.240Z,96.60
2019-01-28T14:55:01.153Z,96.70
2019-01-28T14:57:33.158Z,97.10
2019-01-28T15:00:06.202Z,97.10
2019-01-28T15:02:38.106Z,97.00
2019-01-28T15:05:11.605Z,97.20
2019-01-28T15:07:43.606Z,97.10
2019-01-28T15:10:17.357Z,97.50
2019-01-28T15:12:49.468Z,97.70
2019-01-28T15:15:24.871Z,97.70
2019-01-28T15:17:57.087Z,97.80
2019-01-28T15:20:29.196Z,97.80
2019-01-28T15:23:01.199Z,98.20
2019-01-28T15:25:33.183Z,98.30
2019-01-28T15:28:05.189Z,98.40
2019-01-28T15:30:37.441Z,98.50
2019-01-28T15:33:09.498Z,98.60
2019-01-28T15:35:41.708Z,98.60
2019-01-28T15:38:13.889Z,99.10
2019-01-28T15:40:45.915Z,98.70
2019-01-28T15:43:17.826Z,98.80
2019-01-28T15:45:49.723Z,98.80
2019-01-28T15:48:21.723Z,98.70
2019-01-28T15:50:53.627Z,98.80
2019-01-28T15:53:25.543Z,98.70
2019-01-28T15:55:57.440Z,98.80
2019-01-28T15:58:29.347Z,98.70
2019-01-28T16:01:01.257Z,98.80
2019-01-28T16:03:33.164Z,98.70
2019-01-28T16:06:05.170Z,98.70
2019-01-28T16:08:37.201Z,98.60
2019-01-28T16:11:09.223Z,98.60
2019-01-28T16:13:41.226Z,98.40
2019-01-28T16:16:13.593Z,98.40
2019-01-28T16:18:45.493Z,98.40
2019-01-28T16:21:17.499Z,98.10
2019-01-28T16:23:49.403Z,98.10
2019-01-28T16:26:21.306Z,98.10
2019-01-28T16:28:53.409Z,97.90
2019-01-28T16:31:25.312Z,98.00
2019-01-28T16:33:57.219Z,97.90
2019-01-28T16:36:29.126Z,97.90
2019-01-28T16:39:01.030Z,98.00
2019-01-28T16:41:32.931Z,98.00
2019-01-28T16:44:05.538Z,98.00
2019-01-28T16:46:37.447Z,97.90
2019-01-28T16:49:09.354Z,98.00
2019-01-28T16:51:41.250Z,98.30
2019-01-28T16:54:13.213Z,98.30
2019-01-28T16:56:45.134Z,98.20
2019-01-28T16:59:17.042Z,98.40
2019-01-28T17:01:48.938Z,98.40
2019-01-28T17:04:20.851Z,98.30
2019-01-28T17:06:52.851Z,98.40
2019-01-28T17:09:24.758Z,98.40
2019-01-28T17:11:56.658Z,98.40
2019-01-28T17:14:28.596Z,98.30
2019-01-28T17:17:00.492Z,98.30
2019-01-28T17:19:32.403Z,98.60
2019-01-28T17:22:04.409Z,98.50
2019-01-28T17:24:36.315Z,98.60
2019-01-28T17:27:08.276Z,98.50
2019-01-28T17:29:40.202Z,98.50
2019-01-28T17:32:12.102Z,98.60
2019-01-28T17:34:44.026Z,98.90
2019-01-28T17:37:15.929Z,99.10
2019-01-28T17:39:47.851Z,98.60
2019-01-28T17:42:19.754Z,98.70
2019-01-28T17:44:51.666Z,98.70
2019-01-28T17:47:23.567Z,98.50
2019-01-28T17:50:01.206Z,98.30
2019-01-28T17:52:29.063Z,98.40
2019-01-28T17:55:00.974Z,98.50
2019-01-28T17:57:32.950Z,98.40
2019-01-28T18:00:08.198Z,98.70
2019-01-28T18:02:40.094Z,98.70
2019-01-28T18:05:12.356Z,98.60
2019-01-28T18:07:44.740Z,98.80
2019-01-28T18:10:17.401Z,99.00
2019-01-28T18:12:49.299Z,99.20
2019-01-28T18:15:21.725Z,99.10
2019-01-28T18:17:53.624Z,99.20
2019-01-28T18:20:25.936Z,99.20
2019-01-28T18:22:57.933Z,99.20
2019-01-28T18:25:31.183Z,99.20
2019-01-28T18:28:03.059Z,99.10
2019-01-28T18:30:54.183Z,99.20
2019-01-28T18:33:26.055Z,99.30
2019-01-28T18:36:05.346Z,99.10
2019-01-28T18:38:31.569Z,99.10
2019-01-28T18:41:03.575Z,99.20
2019-01-28T18:43:35.477Z,99.20
2019-01-28T18:46:07.862Z,99.40
2019-01-28T18:48:39.837Z,99.40
2019-01-28T18:51:12.803Z,99.60
2019-01-28T18:53:44.708Z,99.50
2019-01-28T18:56:16.618Z,99.40
2019-01-28T18:58:48.518Z,99.50
2019-01-28T19:01:20.823Z,99.50
2019-01-28T19:03:52.730Z,99.50
2019-01-28T19:06:43.739Z,99.50
2019-01-28T19:09:37.369Z,99.30
2019-01-28T19:12:16.777Z,99.20
2019-01-28T19:15:10.426Z,99.40
2019-01-28T19:18:08.915Z,99.40
2019-01-28T19:21:08.240Z,99.60
2019-01-28T19:23:36.906Z,99.60
2019-01-28T19:26:08.871Z,99.60
2019-01-28T19:28:40.778Z,99.80
2019-01-28T19:31:12.643Z,99.90
2019-01-28T19:33:44.548Z,99.80
2019-01-28T19:36:16.692Z,99.90
2019-01-28T19:38:48.746Z,99.80
2019-01-28T19:41:20.604Z,99.80
2019-01-28T19:43:52.579Z,99.70
2019-01-28T19:46:24.455Z,99.90
2019-01-28T19:48:56.361Z,99.90
2019-01-28T19:51:28.332Z,99.60
2019-01-28T19:54:00.238Z,99.70
2019-01-28T19:56:32.112Z,99.70
2019-01-28T19:59:04.119Z,99.90
2019-01-28T20:01:36.345Z,99.90
2019-01-28T20:04:08.460Z,99.90
2019-01-28T20:06:40.438Z,99.90
2019-01-28T20:09:12.359Z,99.60
2019-01-28T20:11:44.232Z,99.90
2019-01-28T20:14:16.171Z,99.80
2019-01-28T20:16:48.084Z,99.90
2019-01-28T20:19:19.997Z,99.90
2019-01-28T20:21:51.904Z,99.90
2019-01-28T20:24:23.813Z,99.70
2019-01-28T20:26:55.748Z,99.90
2019-01-28T20:29:27.623Z,99.90
2019-01-28T20:31:59.533Z,99.90
2019-01-28T20:34:31.452Z,99.90
2019-01-28T20:37:03.357Z,99.90
2019-01-28T20:39:35.269Z,99.90
2019-01-28T20:42:07.174Z,99.90
2019-01-28T20:44:39.083Z,99.90
2019-01-28T20:47:11.005Z,99.90
2019-01-28T20:49:42.909Z,99.90
2019-01-28T20:52:14.838Z,99.90
2019-01-28T20:54:46.746Z,99.90
2019-01-28T20:57:18.644Z,99.90
2019-01-28T20:59:51.191Z,99.90
2019-01-28T21:02:23.221Z,99.90
2019-01-28T21:04:55.227Z,99.90
2019-01-28T21:07:27.192Z,99.90
2019-01-28T21:09:59.224Z,99.90
2019-01-28T21:12:31.271Z,99.90
2019-01-28T21:15:03.186Z,99.90
2019-01-28T21:17:35.296Z,99.90
2019-01-28T21:20:10.707Z,99.90
2019-01-28T21:22:42.686Z,99.90
2019-01-28T21:25:18.218Z,99.90
2019-01-28T21:27:50.331Z,99.90
2019-01-28T21:30:29.377Z,99.90
2019-01-28T21:33:01.625Z,99.90
2019-01-28T21:36:07.485Z,99.90
2019-01-28T21:38:50.411Z,99.90
2019-01-28T21:41:22.390Z,99.90
2019-01-28T21:43:54.290Z,99.90
2019-01-28T21:46:26.299Z,99.90
2019-01-28T21:48:58.223Z,99.90
2019-01-28T21:51:30.120Z,99.90
2019-01-28T21:54:02.527Z,99.90
2019-01-28T21:56:34.432Z,99.90
2019-01-28T21:59:06.532Z,99.90
2019-01-28T22:01:38.442Z,99.90
2019-01-28T22:04:10.352Z,99.90
2019-01-28T22:06:42.269Z,99.90
2019-01-28T22:09:14.192Z,99.90
2019-01-28T22:11:46.098Z,99.90
2019-01-28T22:14:18.015Z,99.90
2019-01-28T22:16:49.962Z,99.90
2019-01-28T22:19:21.868Z,99.90
2019-01-28T22:21:59.096Z,99.90
2019-01-28T22:24:27.382Z,99.90
2019-01-28T22:26:59.291Z,99.90
2019-01-28T22:29:31.196Z,99.90
2019-01-28T22:32:03.116Z,99.90
2019-01-28T22:34:35.017Z,99.70
2019-01-28T22:37:07.122Z,99.90
2019-01-28T22:39:39.039Z,99.80
2019-01-28T22:42:10.951Z,99.60
2019-01-28T22:44:42.864Z,99.70
2019-01-28T22:47:14.770Z,99.80
2019-01-28T22:49:46.676Z,99.80
2019-01-28T22:52:21.373Z,99.90
2019-01-28T22:54:53.271Z,99.90
2019-01-28T22:57:25.179Z,99.90
2019-01-28T22:59:57.083Z,99.90
2019-01-28T23:02:28.997Z,99.90
2019-01-28T23:05:00.902Z,99.90
2019-01-28T23:07:32.816Z,99.90
2019-01-28T23:10:05.720Z,99.80
2019-01-28T23:12:37.631Z,99.70
2019-01-28T23:15:10.405Z,99.70
2019-01-28T23:17:42.320Z,99.70
2019-01-28T23:20:14.522Z,99.60
2019-01-28T23:22:46.434Z,99.90
2019-01-28T23:25:18.341Z,99.20
2019-01-28T23:27:50.252Z,99.20
2019-01-28T23:30:22.345Z,98.90
2019-01-28T23:32:54.255Z,99.20
2019-01-28T23:35:26.257Z,99.20
2019-01-28T23:37:58.261Z,99.00
2019-01-28T23:40:30.161Z,99.20
2019-01-28T23:43:03.461Z,99.20
2019-01-28T23:45:35.360Z,99.00
2019-01-28T23:48:07.274Z,98.70
2019-01-28T23:50:39.174Z,98.60
2019-01-28T23:53:11.081Z,98.60
2019-01-28T23:55:42.999Z,98.50
2019-01-28T23:58:14.907Z,98.80
